Current Conditions
Partly Cloudy
Conditions



Pressure
30.11 (inHG) - 1019.62 (mb)
Visibility

9.9 (miles) - 16.0 (km)
   Temperature
64  °F
18°C
57  °F
Dewpoint
78  %
 Humidity
   Wind Speed
7  mph
6  kts
11  km/h
3.1  m/s
   Wind Direction
 220°
South West
   Airport Data
KSBA
Location Santa Barbara Municipal Airport 6 mi (9.65 km)
Metar :KSBA 221653Z 22006KT 10SM FEW002 18/14 A3011 RMK AO2 SLP194 T01780144 $
Wed 22nd September 09:53 am
   Raw Metar Info
Raw METAR is the most common format in the world for the transmission of observational weather data. It is highly standardized through the International Civil Aviation Organization (ICAO), which allows it to be understood throughout most of the world.
   API Info
Data Provided by
https://www.checkwx.com/weather/KSBA
   © Info
CSS/SVG/PHP scripts were developed by weather34.com for use in the weather34 template © 2015-2021

Guide Info provided by Metar-Wikipedia